createdAt,value
2018-02-20T00:01:05.348Z,33.60
2018-02-20T00:03:32.985Z,33.43
2018-02-20T00:06:00.596Z,33.10
2018-02-20T00:08:28.272Z,26.70
2018-02-20T00:10:55.891Z,33.00
2018-02-20T00:13:24.544Z,28.13
2018-02-20T00:15:52.198Z,34.77
2018-02-20T00:18:20.661Z,33.33
2018-02-20T00:20:49.134Z,25.77
2018-02-20T00:23:16.784Z,31.33
2018-02-20T00:25:44.427Z,29.43
2018-02-20T00:28:12.101Z,32.17
2018-02-20T00:30:39.739Z,26.17
2018-02-20T00:33:07.411Z,34.77
2018-02-20T00:35:35.059Z,29.80
2018-02-20T00:38:03.583Z,30.87
2018-02-20T00:40:31.706Z,32.10
2018-02-20T00:42:59.345Z,29.83
2018-02-20T00:45:26.952Z,30.07
2018-02-20T00:47:54.613Z,33.20
2018-02-20T00:50:22.221Z,34.27
2018-02-20T00:52:50.123Z,29.70
2018-02-20T00:55:18.563Z,30.70
2018-02-20T00:57:46.231Z,31.20
2018-02-20T01:00:14.796Z,30.17
2018-02-20T01:02:42.438Z,31.23
2018-02-20T01:05:10.054Z,24.97
2018-02-20T01:07:38.945Z,28.97
2018-02-20T01:10:06.572Z,31.50
2018-02-20T01:12:34.584Z,33.30
2018-02-20T01:15:02.192Z,30.13
2018-02-20T01:17:30.381Z,34.90
2018-02-20T01:19:58.012Z,33.07
2018-02-20T01:22:26.396Z,27.63
2018-02-20T01:24:54.007Z,29.70
2018-02-20T01:27:21.645Z,29.77
2018-02-20T01:29:50.040Z,34.03
2018-02-20T01:32:17.932Z,28.23
2018-02-20T01:34:45.540Z,28.70
2018-02-20T01:37:14.095Z,24.40
2018-02-20T01:39:41.760Z,30.33
2018-02-20T01:42:09.634Z,30.87
2018-02-20T01:44:37.607Z,31.23
2018-02-20T01:47:05.276Z,27.60
2018-02-20T01:49:32.965Z,32.05
2018-02-20T01:52:01.405Z,29.60
2018-02-20T01:54:30.494Z,32.47
2018-02-20T01:56:58.979Z,28.77
2018-02-20T01:59:26.741Z,30.48
2018-02-20T02:01:54.384Z,31.60
2018-02-20T02:04:22.231Z,30.70
2018-02-20T02:06:50.040Z,32.38
2018-02-20T02:09:17.676Z,28.20
2018-02-20T02:11:45.491Z,31.90
2018-02-20T02:14:13.149Z,31.40
2018-02-20T02:16:40.851Z,24.58
2018-02-20T02:19:09.416Z,28.37
2018-02-20T02:21:37.113Z,30.17
2018-02-20T02:24:04.867Z,28.27
2018-02-20T02:26:32.588Z,30.30
2018-02-20T02:29:00.561Z,29.15
2018-02-20T02:31:29.290Z,28.48
2018-02-20T02:33:57.855Z,31.50
2018-02-20T02:36:26.443Z,35.75
2018-02-20T02:38:54.852Z,32.22
2018-02-20T02:41:23.459Z,31.60
2018-02-20T02:43:51.151Z,32.25
2018-02-20T02:46:18.837Z,29.93
2018-02-20T02:48:46.592Z,28.00
2018-02-20T02:51:14.783Z,29.42
2018-02-20T02:53:42.495Z,28.90
2018-02-20T02:56:10.102Z,33.83
2018-02-20T02:58:38.628Z,34.30
2018-02-20T03:01:06.346Z,30.17
2018-02-20T03:03:34.132Z,29.45
2018-02-20T03:06:01.847Z,31.42
2018-02-20T03:08:29.491Z,28.27
2018-02-20T03:10:57.232Z,29.40
2018-02-20T03:13:25.852Z,28.15
2018-02-20T03:15:53.556Z,26.40
2018-02-20T03:18:21.295Z,30.85
2018-02-20T03:20:49.151Z,32.75
2018-02-20T03:23:16.869Z,24.65
2018-02-20T03:25:45.395Z,32.92
2018-02-20T03:28:13.712Z,29.00
2018-02-20T03:30:41.332Z,28.47
2018-02-20T03:33:10.267Z,29.08
2018-02-20T03:35:37.995Z,30.95
2018-02-20T03:38:06.471Z,30.90
2018-02-20T03:40:34.154Z,28.55
2018-02-20T03:43:01.883Z,31.60
2018-02-20T03:45:29.587Z,25.12
2018-02-20T03:47:57.323Z,25.58
2018-02-20T03:50:25.335Z,27.25
2018-02-20T03:52:53.227Z,27.23
2018-02-20T03:55:21.690Z,22.40
2018-02-20T03:57:49.446Z,41.03
2018-02-20T04:00:17.300Z,27.77
2018-02-20T04:02:45.574Z,27.27
2018-02-20T04:05:13.247Z,29.85
2018-02-20T04:07:41.323Z,29.50
2018-02-20T04:10:09.036Z,27.48
2018-02-20T04:12:37.796Z,26.65
2018-02-20T04:15:05.485Z,26.27
2018-02-20T04:17:33.212Z,24.40
2018-02-20T04:20:00.931Z,28.33
2018-02-20T04:22:28.643Z,27.77
2018-02-20T04:24:57.101Z,32.80
2018-02-20T04:27:24.848Z,27.00
2018-02-20T04:29:52.704Z,27.17
2018-02-20T04:32:20.418Z,31.98
2018-02-20T04:34:48.397Z,27.77
2018-02-20T04:37:16.506Z,27.65
2018-02-20T04:39:44.204Z,28.52
2018-02-20T04:42:12.708Z,29.27
2018-02-20T04:44:41.143Z,23.02
2018-02-20T04:47:08.864Z,30.27
2018-02-20T04:49:36.547Z,31.58
2018-02-20T04:52:04.273Z,25.27
2018-02-20T04:54:32.012Z,30.52
2018-02-20T04:56:59.883Z,28.10
2018-02-20T04:59:27.608Z,33.42
2018-02-20T05:01:55.322Z,29.85
2018-02-20T05:04:23.006Z,75.00
2018-02-20T05:06:50.844Z,42.25
2018-02-20T05:09:18.868Z,30.65
2018-02-20T05:11:47.163Z,22.83
2018-02-20T05:14:14.853Z,28.75
2018-02-20T05:16:43.467Z,26.27
2018-02-20T05:19:11.152Z,31.17
2018-02-20T05:21:38.905Z,29.95
2018-02-20T05:24:06.887Z,21.48
2018-02-20T05:26:34.617Z,26.87
2018-02-20T05:29:02.360Z,31.65
2018-02-20T05:31:30.092Z,33.63
2018-02-20T05:33:58.103Z,29.42
2018-02-20T05:36:25.889Z,29.33
2018-02-20T05:38:53.827Z,29.35
2018-02-20T05:41:22.455Z,29.42
2018-02-20T05:43:50.159Z,29.95
2018-02-20T05:46:17.929Z,32.67
2018-02-20T05:48:45.667Z,22.70
2018-02-20T05:51:13.427Z,28.42
2018-02-20T05:53:42.084Z,32.30
2018-02-20T05:56:09.732Z,27.00
2018-02-20T05:58:37.368Z,24.67
2018-02-20T06:01:05.001Z,29.60
2018-02-20T06:03:32.647Z,26.00
2018-02-20T06:06:00.322Z,27.98
2018-02-20T06:08:28.766Z,26.50
2018-02-20T06:10:57.292Z,27.02
2018-02-20T06:13:26.417Z,29.75
2018-02-20T06:15:54.494Z,27.27
2018-02-20T06:18:22.212Z,32.45
2018-02-20T06:20:50.609Z,27.85
2018-02-20T06:23:19.058Z,31.23
2018-02-20T06:25:46.831Z,28.87
2018-02-20T06:28:15.428Z,28.45
2018-02-20T06:30:43.919Z,28.40
2018-02-20T06:33:11.652Z,27.37
2018-02-20T06:35:39.428Z,31.20
2018-02-20T06:38:07.432Z,28.58
2018-02-20T06:40:35.152Z,32.50
2018-02-20T06:43:02.841Z,31.62
2018-02-20T06:45:30.627Z,33.15
2018-02-20T06:47:58.892Z,31.35
2018-02-20T06:50:27.207Z,26.95
2018-02-20T07:05:57.898Z,31.23
2018-02-20T07:08:25.727Z,34.88
2018-02-20T07:10:53.446Z,32.55
2018-02-20T07:13:21.181Z,31.75
2018-02-20T07:15:48.898Z,29.10
2018-02-20T07:18:16.586Z,29.67
2018-02-20T07:20:44.385Z,35.00
2018-02-20T07:23:12.131Z,29.70
2018-02-20T07:25:39.822Z,25.70
2018-02-20T07:28:07.536Z,28.17
2018-02-20T07:30:35.473Z,38.33
2018-02-20T07:33:03.186Z,23.10
2018-02-20T07:35:31.046Z,32.72
2018-02-20T07:37:58.850Z,32.88
2018-02-20T07:40:26.768Z,38.17
2018-02-20T07:42:54.697Z,31.60
2018-02-20T07:45:22.764Z,30.90
2018-02-20T07:47:50.565Z,30.12
2018-02-20T07:50:18.300Z,35.90
2018-02-20T07:52:46.045Z,33.15
2018-02-20T07:55:13.758Z,34.67
2018-02-20T07:57:41.593Z,32.22
2018-02-20T08:00:09.321Z,28.60
2018-02-20T08:02:37.019Z,29.80
2018-02-20T08:05:04.824Z,26.08
2018-02-20T08:07:32.505Z,31.92
2018-02-20T08:10:00.317Z,32.53
2018-02-20T08:12:28.000Z,27.10
2018-02-20T08:14:55.707Z,32.75
2018-02-20T08:17:23.396Z,27.62
2018-02-20T08:19:51.093Z,30.40
2018-02-20T08:22:18.773Z,34.55
2018-02-20T08:24:46.491Z,30.12
2018-02-20T08:27:14.163Z,27.67
2018-02-20T08:29:41.903Z,30.65
2018-02-20T08:32:09.638Z,30.42
2018-02-20T08:34:37.336Z,34.35
2018-02-20T08:37:05.066Z,28.92
2018-02-20T08:39:32.779Z,33.22
2018-02-20T08:42:00.461Z,32.22
2018-02-20T08:44:28.189Z,35.53
2018-02-20T08:46:55.866Z,32.22
2018-02-20T08:49:23.722Z,28.92
2018-02-20T08:51:51.506Z,32.85
2018-02-20T08:54:19.198Z,40.12
2018-02-20T08:56:46.912Z,35.30
2018-02-20T08:59:14.590Z,32.45
2018-02-20T09:01:42.300Z,38.05
2018-02-20T09:04:09.969Z,40.55
2018-02-20T09:06:37.692Z,31.45
2018-02-20T09:09:05.377Z,42.35
2018-02-20T09:11:33.087Z,38.95
2018-02-20T09:14:00.782Z,41.53
2018-02-20T09:16:28.515Z,48.03
2018-02-20T09:18:56.276Z,34.22
2018-02-20T09:21:24.048Z,37.38
2018-02-20T09:23:51.929Z,32.97
2018-02-20T09:26:19.655Z,33.30
2018-02-20T09:28:47.379Z,32.35
2018-02-20T09:31:15.121Z,36.90
2018-02-20T09:33:42.820Z,29.37
2018-02-20T09:36:10.554Z,32.63
2018-02-20T09:38:38.314Z,30.92
2018-02-20T09:41:07.847Z,32.17
2018-02-20T09:43:35.536Z,30.45
2018-02-20T09:46:03.550Z,33.85
2018-02-20T09:48:31.136Z,33.47
2018-02-20T09:50:58.972Z,25.55
2018-02-20T09:53:26.680Z,29.45
2018-02-20T09:55:54.426Z,30.42
2018-02-20T09:58:22.103Z,29.42
2018-02-20T10:00:49.821Z,27.70
2018-02-20T10:03:17.620Z,31.53
2018-02-20T10:05:45.381Z,34.85
2018-02-20T10:08:13.026Z,29.77
2018-02-20T10:10:40.658Z,28.47
2018-02-20T10:13:08.318Z,31.57
2018-02-20T10:15:35.950Z,31.80
2018-02-20T10:18:03.625Z,37.55
2018-02-20T10:20:31.290Z,29.37
2018-02-20T10:22:58.886Z,30.77
2018-02-20T10:25:26.486Z,31.43
2018-02-20T10:27:54.250Z,32.43
2018-02-20T10:30:21.838Z,34.13
2018-02-20T10:32:49.485Z,33.80
2018-02-20T10:35:17.091Z,36.37
2018-02-20T10:37:44.719Z,33.23
2018-02-20T10:40:12.314Z,36.50
2018-02-20T10:42:39.988Z,36.27
2018-02-20T10:45:07.650Z,34.07
2018-02-20T10:47:35.277Z,34.30
2018-02-20T10:50:02.881Z,32.23
2018-02-20T11:08:12.096Z,34.70
2018-02-20T11:10:39.726Z,33.03
2018-02-20T11:13:07.323Z,34.00
2018-02-20T11:15:34.944Z,33.20
2018-02-20T11:18:02.562Z,41.93
2018-02-20T11:20:30.231Z,42.10
2018-02-20T11:22:57.832Z,39.47
2018-02-20T11:25:25.466Z,35.30
2018-02-20T11:27:53.062Z,34.17
2018-02-20T11:30:20.705Z,31.97
2018-02-20T11:32:48.300Z,33.07
2018-02-20T11:35:15.929Z,36.40
2018-02-20T11:37:43.530Z,35.43
2018-02-20T11:40:11.153Z,33.47
2018-02-20T11:42:38.763Z,33.77
2018-02-20T11:45:06.379Z,40.13
2018-02-20T11:47:33.987Z,31.57
2018-02-20T11:50:01.607Z,33.53
2018-02-20T11:52:29.199Z,36.23
2018-02-20T11:54:56.830Z,41.23
2018-02-20T11:57:24.422Z,33.13
2018-02-20T11:59:52.050Z,30.60
2018-02-20T12:02:19.662Z,31.53
2018-02-20T12:04:47.315Z,41.23
2018-02-20T12:07:14.907Z,34.30
2018-02-20T12:09:42.531Z,30.60
2018-02-20T12:12:10.115Z,38.10
2018-02-20T12:14:37.731Z,34.60
2018-02-20T12:17:05.330Z,43.97
2018-02-20T12:19:33.183Z,39.23
2018-02-20T12:22:00.789Z,34.13
2018-02-20T12:24:28.626Z,39.27
2018-02-20T12:26:56.225Z,38.30
2018-02-20T12:29:23.862Z,37.47
2018-02-20T12:31:51.591Z,36.70
2018-02-20T12:34:19.215Z,37.30
2018-02-20T12:36:47.009Z,35.80
2018-02-20T12:39:14.635Z,40.63
2018-02-20T12:41:42.247Z,42.63
2018-02-20T12:44:09.854Z,53.03
2018-02-20T12:46:37.455Z,32.50
2018-02-20T12:49:05.123Z,33.93
2018-02-20T12:51:32.706Z,35.23
2018-02-20T12:54:00.358Z,34.40
2018-02-20T12:56:27.951Z,37.57
2018-02-20T12:58:55.569Z,35.53
2018-02-20T13:01:23.418Z,36.20
2018-02-20T13:03:51.047Z,40.27
2018-02-20T13:06:18.679Z,35.40
2018-02-20T13:08:46.346Z,38.70
2018-02-20T13:11:13.979Z,36.70
2018-02-20T13:13:41.609Z,37.57
2018-02-20T13:16:09.211Z,38.00
2018-02-20T13:18:36.846Z,36.50
2018-02-20T13:21:04.438Z,35.23
2018-02-20T13:23:32.082Z,39.40
2018-02-20T13:25:59.671Z,38.80
2018-02-20T13:28:27.447Z,37.70
2018-02-20T13:30:57.015Z,42.17
2018-02-20T13:33:24.646Z,31.60
2018-02-20T13:35:52.243Z,35.70
2018-02-20T13:38:19.862Z,39.00
2018-02-20T13:40:47.467Z,47.67
2018-02-20T13:43:15.098Z,40.67
2018-02-20T13:45:42.742Z,34.77
2018-02-20T13:48:10.350Z,39.80
2018-02-20T13:50:37.943Z,36.57
2018-02-20T13:53:05.582Z,34.03
2018-02-20T13:55:33.312Z,43.70
2018-02-20T13:58:00.954Z,36.03
2018-02-20T14:00:28.596Z,37.80
2018-02-20T14:02:56.275Z,38.57
2018-02-20T14:05:23.935Z,38.90
2018-02-20T14:07:51.534Z,31.30
2018-02-20T14:10:19.142Z,38.40
2018-02-20T14:12:46.762Z,32.47
2018-02-20T14:15:14.371Z,30.63
2018-02-20T14:17:42.005Z,34.00
2018-02-20T14:20:09.602Z,30.60
2018-02-20T14:22:37.282Z,30.57
2018-02-20T14:25:05.075Z,30.57
2018-02-20T14:27:32.690Z,32.43
2018-02-20T14:30:00.291Z,33.93
2018-02-20T14:32:28.025Z,33.77
2018-02-20T14:34:55.631Z,31.40
2018-02-20T14:37:23.346Z,44.60
2018-02-20T14:39:50.986Z,35.80
2018-02-20T14:42:18.608Z,33.63
2018-02-20T14:44:46.214Z,32.43
2018-02-20T14:47:13.844Z,28.80
2018-02-20T14:49:41.442Z,32.93
2018-02-20T14:52:09.328Z,25.87
2018-02-20T14:54:36.931Z,27.13
2018-02-20T14:57:04.817Z,34.13
2018-02-20T14:59:32.411Z,28.33
2018-02-20T15:02:00.062Z,27.53
2018-02-20T15:04:27.682Z,23.47
2018-02-20T15:06:55.337Z,24.60
2018-02-20T15:09:23.190Z,22.23
2018-02-20T15:11:50.835Z,22.73
2018-02-20T15:14:18.494Z,23.60
2018-02-20T15:16:46.111Z,21.17
2018-02-20T15:19:13.734Z,23.37
2018-02-20T15:21:41.390Z,24.23
2018-02-20T15:24:08.991Z,25.37
2018-02-20T15:26:36.626Z,22.33
2018-02-20T15:29:04.242Z,18.33
2018-02-20T15:31:31.884Z,24.00
2018-02-20T15:33:59.470Z,24.50
2018-02-20T15:36:27.131Z,28.20
2018-02-20T15:38:54.738Z,23.30
2018-02-20T15:41:22.379Z,20.87
2018-02-20T15:43:49.988Z,25.37
2018-02-20T15:46:17.608Z,23.30
2018-02-20T15:48:45.327Z,23.73
2018-02-20T15:51:12.967Z,17.67
2018-02-20T15:53:40.570Z,23.57
2018-02-20T15:56:08.191Z,17.40
2018-02-20T15:58:35.778Z,21.40
2018-02-20T16:01:03.423Z,20.10
2018-02-20T16:03:31.047Z,18.90
2018-02-20T16:05:58.767Z,20.23
2018-02-20T16:08:26.373Z,21.53
2018-02-20T16:10:54.019Z,21.77
2018-02-20T16:13:21.774Z,21.40
2018-02-20T16:15:53.044Z,21.00
2018-02-20T16:18:20.647Z,21.23
2018-02-20T16:20:48.306Z,20.37
2018-02-20T16:23:15.902Z,21.70
2018-02-20T16:25:43.550Z,21.30
2018-02-20T16:28:11.143Z,23.70
2018-02-20T16:30:38.799Z,20.70
2018-02-20T16:33:06.518Z,22.77
2018-02-20T16:35:34.142Z,22.00
2018-02-20T16:38:01.770Z,29.50
2018-02-20T16:40:29.378Z,29.97
2018-02-20T16:42:57.151Z,26.93
2018-02-20T16:45:24.827Z,33.73
2018-02-20T16:47:52.453Z,32.80
2018-02-20T16:50:20.063Z,28.00
2018-02-20T16:52:47.859Z,31.67
2018-02-20T16:55:15.483Z,32.87
2018-02-20T16:57:43.118Z,32.97
2018-02-20T17:00:10.734Z,28.83
2018-02-20T17:02:38.420Z,30.17
2018-02-20T17:05:06.002Z,27.50
2018-02-20T17:07:33.631Z,37.40
2018-02-20T17:10:01.228Z,37.80
2018-02-20T17:12:28.993Z,32.47
2018-02-20T17:14:56.679Z,34.37
2018-02-20T17:17:24.317Z,63.07
2018-02-20T17:19:52.168Z,56.27
2018-02-20T17:22:19.807Z,33.80
2018-02-20T17:24:47.439Z,31.07
2018-02-20T17:27:15.082Z,30.10
2018-02-20T17:29:42.695Z,33.43
2018-02-20T17:32:10.315Z,34.07
2018-02-20T17:34:38.026Z,33.83
2018-02-20T17:37:05.660Z,33.90
2018-02-20T17:39:33.261Z,37.43
2018-02-20T17:42:00.912Z,31.37
2018-02-20T17:44:28.508Z,31.03
2018-02-20T17:46:56.147Z,30.77
2018-02-20T17:49:23.743Z,27.93
2018-02-20T17:51:51.403Z,43.83
2018-02-20T17:54:19.012Z,37.07
2018-02-20T17:56:46.838Z,31.50
2018-02-20T17:59:14.459Z,33.47
2018-02-20T18:01:42.102Z,29.70
2018-02-20T18:04:09.709Z,34.03
2018-02-20T18:06:37.347Z,39.57
2018-02-20T18:09:05.835Z,39.80
2018-02-20T18:11:33.495Z,35.10
2018-02-20T18:14:01.139Z,38.27
2018-02-20T18:16:28.836Z,43.57
2018-02-20T18:18:56.509Z,29.30
2018-02-20T18:21:24.138Z,34.33
2018-02-20T18:23:51.728Z,31.73
2018-02-20T18:26:19.370Z,34.70
2018-02-20T18:28:47.172Z,37.17
2018-02-20T18:31:14.791Z,38.53
2018-02-20T18:33:42.384Z,33.30
2018-02-20T18:36:10.055Z,37.80
2018-02-20T18:38:37.655Z,39.63
2018-02-20T18:41:05.460Z,72.30
2018-02-20T18:43:33.062Z,64.80
2018-02-20T18:46:00.702Z,64.93
2018-02-20T18:48:28.311Z,70.77
2018-02-20T18:50:55.980Z,43.57
2018-02-20T18:53:23.602Z,36.37
2018-02-20T18:55:51.231Z,38.80
2018-02-20T18:58:18.945Z,39.40
2018-02-20T19:00:46.601Z,39.17
2018-02-20T19:03:14.215Z,33.50
2018-02-20T19:05:41.861Z,37.57
2018-02-20T19:08:09.467Z,40.53
2018-02-20T19:10:37.251Z,40.20
2018-02-20T19:13:04.854Z,32.90
2018-02-20T19:15:32.467Z,35.77
2018-02-20T19:18:00.086Z,32.83
2018-02-20T19:20:27.733Z,40.17
2018-02-20T19:22:55.337Z,34.20
2018-02-20T19:25:23.140Z,38.00
2018-02-20T19:27:50.735Z,33.80
2018-02-20T19:30:18.367Z,32.83
2018-02-20T19:32:45.963Z,37.20
2018-02-20T19:35:13.603Z,41.67
2018-02-20T19:37:41.202Z,40.30
2018-02-20T19:40:08.845Z,34.90
2018-02-20T19:42:36.456Z,37.57
2018-02-20T19:45:04.116Z,33.17
2018-02-20T19:47:31.737Z,35.07
2018-02-20T19:49:59.396Z,34.47
2018-02-20T19:52:27.017Z,58.17
2018-02-20T19:54:54.687Z,46.87
2018-02-20T19:57:22.423Z,38.90
2018-02-20T19:59:50.075Z,37.73
2018-02-20T20:02:17.712Z,31.13
2018-02-20T20:04:45.439Z,37.67
2018-02-20T20:07:13.094Z,40.80
2018-02-20T20:09:40.783Z,37.90
2018-02-20T20:12:08.418Z,33.40
2018-02-20T20:14:36.043Z,39.20
2018-02-20T20:17:03.671Z,35.57
2018-02-20T20:19:31.290Z,32.80
2018-02-20T20:21:58.936Z,36.27
2018-02-20T20:24:26.591Z,34.13
2018-02-20T20:26:54.233Z,45.13
2018-02-20T20:29:21.851Z,47.63
2018-02-20T20:31:49.483Z,40.03
2018-02-20T20:34:17.108Z,41.60
2018-02-20T20:36:44.746Z,35.17
2018-02-20T20:39:12.346Z,42.03
2018-02-20T20:41:40.019Z,43.70
2018-02-20T20:44:07.647Z,32.67
2018-02-20T20:46:35.305Z,38.30
2018-02-20T20:49:02.962Z,38.20
2018-02-20T20:51:30.599Z,39.03
2018-02-20T20:53:58.196Z,39.50
2018-02-20T20:56:25.826Z,39.43
2018-02-20T20:58:53.447Z,37.87
2018-02-20T21:01:21.091Z,40.33
2018-02-20T21:03:48.682Z,39.90
2018-02-20T21:06:16.322Z,42.20
2018-02-20T21:08:43.926Z,44.63
2018-02-20T21:11:11.578Z,44.17
2018-02-20T21:13:39.176Z,38.20
2018-02-20T21:16:06.838Z,45.90
2018-02-20T21:18:34.531Z,43.23
2018-02-20T21:21:02.198Z,41.00
2018-02-20T21:23:29.794Z,37.87
2018-02-20T21:25:57.442Z,39.70
2018-02-20T21:28:25.087Z,39.47
2018-02-20T21:30:52.706Z,43.80
2018-02-20T21:33:20.297Z,41.73
2018-02-20T21:35:47.926Z,41.83
2018-02-20T21:38:15.514Z,40.17
2018-02-20T21:40:43.155Z,45.67
2018-02-20T21:43:10.972Z,35.90
2018-02-20T21:45:38.613Z,48.00
2018-02-20T21:48:06.200Z,44.20
2018-02-20T21:50:33.882Z,47.67
2018-02-20T21:53:01.513Z,44.50
2018-02-20T21:55:29.299Z,41.93
2018-02-20T21:57:57.670Z,42.03
2018-02-20T22:00:25.292Z,43.07
2018-02-20T22:02:52.882Z,39.00
2018-02-20T22:05:20.575Z,50.10
2018-02-20T22:07:48.209Z,49.23
2018-02-20T22:10:15.840Z,40.90
2018-02-20T22:12:43.452Z,42.00
2018-02-20T22:15:11.267Z,44.17
2018-02-20T22:17:38.867Z,39.67
2018-02-20T22:20:06.549Z,45.57
2018-02-20T22:22:34.153Z,39.03
2018-02-20T22:25:01.906Z,46.73
2018-02-20T22:27:29.551Z,43.33
2018-02-20T22:29:57.179Z,44.37
2018-02-20T22:32:24.943Z,40.50
2018-02-20T22:34:52.697Z,45.70
2018-02-20T22:37:20.315Z,45.17
2018-02-20T22:39:47.935Z,50.33
2018-02-20T22:42:15.532Z,43.30
2018-02-20T22:44:43.302Z,43.67
2018-02-20T22:47:10.892Z,45.80
2018-02-20T22:49:38.511Z,42.70
2018-02-20T22:52:06.102Z,41.93
2018-02-20T22:54:33.750Z,49.13
2018-02-20T22:57:01.347Z,44.70
2018-02-20T22:59:28.947Z,40.33
2018-02-20T23:01:56.578Z,37.93
2018-02-20T23:04:24.197Z,42.80
2018-02-20T23:06:51.807Z,41.23
2018-02-20T23:09:19.402Z,40.47
2018-02-20T23:11:47.747Z,48.07
2018-02-20T23:14:15.412Z,45.43
2018-02-20T23:16:43.034Z,58.93
2018-02-20T23:19:10.663Z,42.53
2018-02-20T23:21:38.287Z,45.57
2018-02-20T23:24:05.887Z,42.20
2018-02-20T23:26:33.646Z,43.03
2018-02-20T23:29:01.268Z,42.37
2018-02-20T23:31:28.899Z,45.10
2018-02-20T23:33:56.544Z,49.77
2018-02-20T23:36:24.162Z,44.17
2018-02-20T23:38:51.779Z,46.90
2018-02-20T23:41:19.393Z,43.80
2018-02-20T23:43:46.985Z,44.60
2018-02-20T23:46:14.862Z,42.30
2018-02-20T23:48:42.445Z,46.90
2018-02-20T23:51:15.662Z,49.50
2018-02-20T23:53:43.252Z,43.20
2018-02-20T23:56:10.862Z,44.43
2018-02-20T23:58:38.549Z,50.25
